sensor_id;sensor_type;location;lat;lon;timestamp;P1;durP1;ratioP1;P2;durP2;ratioP2
26864;SDS011;40618;51.166;10.322;2024-01-11T00:00:30;66.88;;;32.40;;
26864;SDS011;40618;51.166;10.322;2024-01-11T00:02:55;70.57;;;32.22;;
26864;SDS011;40618;51.166;10.322;2024-01-11T00:05:21;61.88;;;29.92;;
26864;SDS011;40618;51.166;10.322;2024-01-11T00:07:46;63.10;;;30.92;;
26864;SDS011;40618;51.166;10.322;2024-01-11T00:10:13;67.45;;;31.08;;
26864;SDS011;40618;51.166;10.322;2024-01-11T00:12:41;68.10;;;32.33;;
26864;SDS011;40618;51.166;10.322;2024-01-11T00:15:06;61.15;;;31.52;;
26864;SDS011;40618;51.166;10.322;2024-01-11T00:17:32;70.45;;;32.28;;
26864;SDS011;40618;51.166;10.322;2024-01-11T00:19:58;66.47;;;31.30;;
26864;SDS011;40618;51.166;10.322;2024-01-11T00:22:24;65.07;;;32.35;;
26864;SDS011;40618;51.166;10.322;2024-01-11T00:24:49;66.07;;;31.10;;
26864;SDS011;40618;51.166;10.322;2024-01-11T00:27:15;62.60;;;30.45;;
26864;SDS011;40618;51.166;10.322;2024-01-11T00:29:40;69.88;;;31.70;;
26864;SDS011;40618;51.166;10.322;2024-01-11T00:32:06;64.90;;;30.65;;
26864;SDS011;40618;51.166;10.322;2024-01-11T00:34:31;68.85;;;31.63;;
26864;SDS011;40618;51.166;10.322;2024-01-11T00:36:57;64.82;;;32.28;;
26864;SDS011;40618;51.166;10.322;2024-01-11T00:39:23;66.78;;;30.98;;
26864;SDS011;40618;51.166;10.322;2024-01-11T00:41:48;60.15;;;29.08;;
26864;SDS011;40618;51.166;10.322;2024-01-11T00:44:14;58.15;;;31.00;;
26864;SDS011;40618;51.166;10.322;2024-01-11T00:46:39;60.05;;;29.70;;
26864;SDS011;40618;51.166;10.322;2024-01-11T00:49:06;69.47;;;32.92;;
26864;SDS011;40618;51.166;10.322;2024-01-11T00:51:32;63.35;;;30.00;;
26864;SDS011;40618;51.166;10.322;2024-01-11T00:53:57;66.43;;;32.97;;
26864;SDS011;40618;51.166;10.322;2024-01-11T00:56:23;68.45;;;30.85;;
26864;SDS011;40618;51.166;10.322;2024-01-11T00:58:49;67.57;;;31.38;;
26864;SDS011;40618;51.166;10.322;2024-01-11T01:01:14;60.53;;;28.98;;
26864;SDS011;40618;51.166;10.322;2024-01-11T01:03:40;71.43;;;31.42;;
26864;SDS011;40618;51.166;10.322;2024-01-11T01:06:05;61.63;;;29.80;;
26864;SDS011;40618;51.166;10.322;2024-01-11T01:08:31;63.42;;;30.13;;
26864;SDS011;40618;51.166;10.322;2024-01-11T01:10:57;66.50;;;29.48;;
26864;SDS011;40618;51.166;10.322;2024-01-11T01:13:22;65.25;;;30.67;;
26864;SDS011;40618;51.166;10.322;2024-01-11T01:15:48;62.33;;;30.08;;
26864;SDS011;40618;51.166;10.322;2024-01-11T01:18:14;56.08;;;28.48;;
26864;SDS011;40618;51.166;10.322;2024-01-11T01:20:39;66.00;;;30.50;;
26864;SDS011;40618;51.166;10.322;2024-01-11T01:23:05;63.30;;;30.75;;
26864;SDS011;40618;51.166;10.322;2024-01-11T01:25:30;61.97;;;29.10;;
26864;SDS011;40618;51.166;10.322;2024-01-11T01:27:57;63.22;;;28.48;;
26864;SDS011;40618;51.166;10.322;2024-01-11T01:30:24;68.47;;;30.92;;
26864;SDS011;40618;51.166;10.322;2024-01-11T01:32:50;66.85;;;31.30;;
26864;SDS011;40618;51.166;10.322;2024-01-11T01:35:15;62.22;;;31.05;;
26864;SDS011;40618;51.166;10.322;2024-01-11T01:37:41;64.47;;;30.45;;
26864;SDS011;40618;51.166;10.322;2024-01-11T01:40:07;67.72;;;29.77;;
26864;SDS011;40618;51.166;10.322;2024-01-11T01:42:34;59.15;;;29.40;;
26864;SDS011;40618;51.166;10.322;2024-01-11T01:44:59;63.65;;;30.13;;
26864;SDS011;40618;51.166;10.322;2024-01-11T01:47:28;60.95;;;29.60;;
26864;SDS011;40618;51.166;10.322;2024-01-11T01:49:54;59.55;;;29.00;;
26864;SDS011;40618;51.166;10.322;2024-01-11T01:52:21;65.22;;;30.80;;
26864;SDS011;40618;51.166;10.322;2024-01-11T01:54:47;62.28;;;28.85;;
26864;SDS011;40618;51.166;10.322;2024-01-11T01:57:15;60.92;;;29.50;;
26864;SDS011;40618;51.166;10.322;2024-01-11T01:59:42;74.18;;;33.15;;
26864;SDS011;40618;51.166;10.322;2024-01-11T02:02:08;65.95;;;31.27;;
26864;SDS011;40618;51.166;10.322;2024-01-11T02:04:35;67.90;;;32.30;;
26864;SDS011;40618;51.166;10.322;2024-01-11T02:07:01;69.65;;;33.10;;
26864;SDS011;40618;51.166;10.322;2024-01-11T02:09:27;64.43;;;31.02;;
26864;SDS011;40618;51.166;10.322;2024-01-11T02:11:55;64.20;;;31.08;;
26864;SDS011;40618;51.166;10.322;2024-01-11T02:14:20;65.65;;;30.48;;
26864;SDS011;40618;51.166;10.322;2024-01-11T02:16:46;63.10;;;30.50;;
26864;SDS011;40618;51.166;10.322;2024-01-11T02:19:15;67.72;;;32.08;;
26864;SDS011;40618;51.166;10.322;2024-01-11T02:21:44;81.82;;;34.78;;
26864;SDS011;40618;51.166;10.322;2024-01-11T02:24:13;77.50;;;35.35;;
26864;SDS011;40618;51.166;10.322;2024-01-11T02:29:29;67.78;;;32.75;;
26864;SDS011;40618;51.166;10.322;2024-01-11T02:31:56;69.20;;;31.48;;
26864;SDS011;40618;51.166;10.322;2024-01-11T02:34:23;65.22;;;32.35;;
26864;SDS011;40618;51.166;10.322;2024-01-11T02:36:52;80.18;;;38.00;;
26864;SDS011;40618;51.166;10.322;2024-01-11T02:39:18;73.05;;;35.55;;
26864;SDS011;40618;51.166;10.322;2024-01-11T02:41:45;74.47;;;33.67;;
26864;SDS011;40618;51.166;10.322;2024-01-11T02:44:12;63.90;;;32.33;;
26864;SDS011;40618;51.166;10.322;2024-01-11T02:46:38;65.47;;;32.97;;
26864;SDS011;40618;51.166;10.322;2024-01-11T02:49:03;72.93;;;32.22;;
26864;SDS011;40618;51.166;10.322;2024-01-11T02:51:29;65.10;;;31.85;;
26864;SDS011;40618;51.166;10.322;2024-01-11T02:53:54;67.18;;;31.27;;
26864;SDS011;40618;51.166;10.322;2024-01-11T02:56:20;69.90;;;31.65;;
26864;SDS011;40618;51.166;10.322;2024-01-11T02:58:45;60.90;;;29.95;;
26864;SDS011;40618;51.166;10.322;2024-01-11T03:01:11;68.90;;;31.30;;
26864;SDS011;40618;51.166;10.322;2024-01-11T03:03:36;69.22;;;33.42;;
26864;SDS011;40618;51.166;10.322;2024-01-11T03:06:02;66.32;;;32.00;;
26864;SDS011;40618;51.166;10.322;2024-01-11T03:08:28;65.90;;;30.98;;
26864;SDS011;40618;51.166;10.322;2024-01-11T03:10:54;71.05;;;33.22;;
26864;SDS011;40618;51.166;10.322;2024-01-11T03:13:20;72.78;;;32.78;;
26864;SDS011;40618;51.166;10.322;2024-01-11T03:15:45;69.47;;;32.33;;
26864;SDS011;40618;51.166;10.322;2024-01-11T03:18:11;68.95;;;32.38;;
26864;SDS011;40618;51.166;10.322;2024-01-11T03:20:37;67.38;;;32.30;;
26864;SDS011;40618;51.166;10.322;2024-01-11T03:23:02;68.15;;;33.55;;
26864;SDS011;40618;51.166;10.322;2024-01-11T03:25:31;65.15;;;31.20;;
26864;SDS011;40618;51.166;10.322;2024-01-11T03:28:00;71.18;;;33.40;;
26864;SDS011;40618;51.166;10.322;2024-01-11T03:30:25;69.85;;;32.33;;
26864;SDS011;40618;51.166;10.322;2024-01-11T03:32:51;71.43;;;32.25;;
26864;SDS011;40618;51.166;10.322;2024-01-11T03:35:17;69.72;;;31.58;;
26864;SDS011;40618;51.166;10.322;2024-01-11T03:37:44;66.40;;;31.15;;
26864;SDS011;40618;51.166;10.322;2024-01-11T03:40:10;62.13;;;31.58;;
26864;SDS011;40618;51.166;10.322;2024-01-11T03:42:36;71.97;;;32.90;;
26864;SDS011;40618;51.166;10.322;2024-01-11T03:45:02;68.28;;;32.50;;
26864;SDS011;40618;51.166;10.322;2024-01-11T03:47:29;68.20;;;32.45;;
26864;SDS011;40618;51.166;10.322;2024-01-11T03:49:55;63.33;;;30.67;;
26864;SDS011;40618;51.166;10.322;2024-01-11T03:52:21;66.65;;;32.03;;
26864;SDS011;40618;51.166;10.322;2024-01-11T03:54:46;65.88;;;30.85;;
26864;SDS011;40618;51.166;10.322;2024-01-11T03:57:12;66.28;;;31.55;;
26864;SDS011;40618;51.166;10.322;2024-01-11T03:59:38;66.43;;;30.75;;
26864;SDS011;40618;51.166;10.322;2024-01-11T04:02:05;72.30;;;31.52;;
26864;SDS011;40618;51.166;10.322;2024-01-11T04:04:32;74.20;;;33.00;;
26864;SDS011;40618;51.166;10.322;2024-01-11T04:06:58;67.88;;;32.53;;
26864;SDS011;40618;51.166;10.322;2024-01-11T04:09:23;68.65;;;32.78;;
26864;SDS011;40618;51.166;10.322;2024-01-11T04:11:49;65.85;;;33.53;;
26864;SDS011;40618;51.166;10.322;2024-01-11T04:14:15;63.63;;;30.88;;
26864;SDS011;40618;51.166;10.322;2024-01-11T04:16:41;66.45;;;31.60;;
26864;SDS011;40618;51.166;10.322;2024-01-11T04:19:10;63.83;;;30.90;;
26864;SDS011;40618;51.166;10.322;2024-01-11T04:21:35;64.65;;;29.83;;
26864;SDS011;40618;51.166;10.322;2024-01-11T04:24:04;72.10;;;31.17;;
26864;SDS011;40618;51.166;10.322;2024-01-11T04:26:33;49.17;;;23.30;;
26864;SDS011;40618;51.166;10.322;2024-01-11T04:28:59;65.18;;;31.23;;
26864;SDS011;40618;51.166;10.322;2024-01-11T04:31:25;64.25;;;29.58;;
26864;SDS011;40618;51.166;10.322;2024-01-11T04:33:51;63.33;;;29.85;;
26864;SDS011;40618;51.166;10.322;2024-01-11T04:36:16;61.70;;;30.60;;
26864;SDS011;40618;51.166;10.322;2024-01-11T04:38:42;62.65;;;29.50;;
26864;SDS011;40618;51.166;10.322;2024-01-11T04:41:09;64.03;;;31.45;;
26864;SDS011;40618;51.166;10.322;2024-01-11T04:43:40;65.60;;;30.65;;
26864;SDS011;40618;51.166;10.322;2024-01-11T04:46:16;62.85;;;30.27;;
26864;SDS011;40618;51.166;10.322;2024-01-11T04:48:42;63.92;;;30.77;;
26864;SDS011;40618;51.166;10.322;2024-01-11T04:51:09;63.80;;;29.92;;
26864;SDS011;40618;51.166;10.322;2024-01-11T04:53:36;65.30;;;30.67;;
26864;SDS011;40618;51.166;10.322;2024-01-11T04:56:06;68.40;;;29.60;;
26864;SDS011;40618;51.166;10.322;2024-01-11T04:58:34;70.47;;;30.63;;
26864;SDS011;40618;51.166;10.322;2024-01-11T05:01:00;61.58;;;30.17;;
26864;SDS011;40618;51.166;10.322;2024-01-11T05:03:28;59.55;;;29.45;;
26864;SDS011;40618;51.166;10.322;2024-01-11T05:05:54;63.90;;;31.23;;
26864;SDS011;40618;51.166;10.322;2024-01-11T05:08:20;62.97;;;29.48;;
26864;SDS011;40618;51.166;10.322;2024-01-11T05:10:45;62.42;;;28.65;;
26864;SDS011;40618;51.166;10.322;2024-01-11T05:13:11;68.07;;;31.17;;
26864;SDS011;40618;51.166;10.322;2024-01-11T05:15:36;58.53;;;28.88;;
26864;SDS011;40618;51.166;10.322;2024-01-11T05:18:02;64.63;;;29.77;;
26864;SDS011;40618;51.166;10.322;2024-01-11T05:20:28;62.65;;;29.42;;
26864;SDS011;40618;51.166;10.322;2024-01-11T05:22:54;62.10;;;29.65;;
26864;SDS011;40618;51.166;10.322;2024-01-11T05:25:20;62.33;;;28.88;;
26864;SDS011;40618;51.166;10.322;2024-01-11T05:27:45;61.78;;;30.40;;
26864;SDS011;40618;51.166;10.322;2024-01-11T05:30:11;59.45;;;27.13;;
26864;SDS011;40618;51.166;10.322;2024-01-11T05:32:37;64.80;;;29.88;;
26864;SDS011;40618;51.166;10.322;2024-01-11T05:35:03;61.83;;;29.17;;
26864;SDS011;40618;51.166;10.322;2024-01-11T05:37:29;66.78;;;28.70;;
26864;SDS011;40618;51.166;10.322;2024-01-11T05:39:54;63.33;;;29.00;;
26864;SDS011;40618;51.166;10.322;2024-01-11T05:42:22;61.78;;;28.67;;
26864;SDS011;40618;51.166;10.322;2024-01-11T05:44:48;71.22;;;32.22;;
26864;SDS011;40618;51.166;10.322;2024-01-11T05:47:14;65.20;;;30.65;;
26864;SDS011;40618;51.166;10.322;2024-01-11T05:49:40;63.78;;;30.60;;
26864;SDS011;40618;51.166;10.322;2024-01-11T05:52:06;59.90;;;30.60;;
26864;SDS011;40618;51.166;10.322;2024-01-11T05:54:31;65.15;;;29.25;;
26864;SDS011;40618;51.166;10.322;2024-01-11T05:56:57;59.03;;;27.95;;
26864;SDS011;40618;51.166;10.322;2024-01-11T05:59:24;61.67;;;29.70;;
26864;SDS011;40618;51.166;10.322;2024-01-11T06:01:49;63.65;;;31.08;;
26864;SDS011;40618;51.166;10.322;2024-01-11T06:04:15;62.95;;;31.13;;
26864;SDS011;40618;51.166;10.322;2024-01-11T06:06:41;60.92;;;26.45;;
26864;SDS011;40618;51.166;10.322;2024-01-11T06:09:07;63.28;;;27.33;;
26864;SDS011;40618;51.166;10.322;2024-01-11T06:11:35;57.45;;;26.23;;
26864;SDS011;40618;51.166;10.322;2024-01-11T06:14:00;57.22;;;27.05;;
26864;SDS011;40618;51.166;10.322;2024-01-11T06:16:27;58.03;;;26.05;;
26864;SDS011;40618;51.166;10.322;2024-01-11T06:18:53;53.83;;;26.70;;
26864;SDS011;40618;51.166;10.322;2024-01-11T06:21:19;63.17;;;30.00;;
26864;SDS011;40618;51.166;10.322;2024-01-11T06:23:44;64.25;;;29.83;;
26864;SDS011;40618;51.166;10.322;2024-01-11T06:26:10;66.18;;;31.10;;
26864;SDS011;40618;51.166;10.322;2024-01-11T06:28:35;66.97;;;31.63;;
26864;SDS011;40618;51.166;10.322;2024-01-11T06:31:01;63.80;;;29.92;;
26864;SDS011;40618;51.166;10.322;2024-01-11T06:33:27;59.55;;;29.40;;
26864;SDS011;40618;51.166;10.322;2024-01-11T06:35:53;61.10;;;29.48;;
26864;SDS011;40618;51.166;10.322;2024-01-11T06:38:19;65.60;;;31.45;;
26864;SDS011;40618;51.166;10.322;2024-01-11T06:40:44;74.30;;;33.53;;
26864;SDS011;40618;51.166;10.322;2024-01-11T06:43:10;67.15;;;31.70;;
26864;SDS011;40618;51.166;10.322;2024-01-11T06:45:36;70.03;;;32.25;;
26864;SDS011;40618;51.166;10.322;2024-01-11T06:48:02;75.10;;;34.63;;
26864;SDS011;40618;51.166;10.322;2024-01-11T06:50:28;73.32;;;35.83;;
26864;SDS011;40618;51.166;10.322;2024-01-11T06:52:53;79.25;;;37.03;;
26864;SDS011;40618;51.166;10.322;2024-01-11T06:55:19;69.88;;;32.78;;
26864;SDS011;40618;51.166;10.322;2024-01-11T06:57:48;62.90;;;30.23;;
26864;SDS011;40618;51.166;10.322;2024-01-11T07:00:13;59.22;;;28.25;;
26864;SDS011;40618;51.166;10.322;2024-01-11T07:02:39;66.03;;;29.25;;
26864;SDS011;40618;51.166;10.322;2024-01-11T07:05:05;58.28;;;27.95;;
26864;SDS011;40618;51.166;10.322;2024-01-11T07:07:31;55.97;;;28.52;;
26864;SDS011;40618;51.166;10.322;2024-01-11T07:09:58;61.20;;;28.60;;
26864;SDS011;40618;51.166;10.322;2024-01-11T07:12:24;61.03;;;27.75;;
26864;SDS011;40618;51.166;10.322;2024-01-11T07:14:50;59.00;;;28.48;;
26864;SDS011;40618;51.166;10.322;2024-01-11T07:17:16;59.20;;;27.25;;
26864;SDS011;40618;51.166;10.322;2024-01-11T07:19:42;54.20;;;25.80;;
26864;SDS011;40618;51.166;10.322;2024-01-11T07:22:08;54.95;;;27.17;;
26864;SDS011;40618;51.166;10.322;2024-01-11T07:24:34;56.63;;;27.02;;
26864;SDS011;40618;51.166;10.322;2024-01-11T07:27:05;59.72;;;28.60;;
26864;SDS011;40618;51.166;10.322;2024-01-11T07:29:32;56.47;;;29.33;;
26864;SDS011;40618;51.166;10.322;2024-01-11T07:31:58;63.67;;;31.90;;
26864;SDS011;40618;51.166;10.322;2024-01-11T07:34:25;61.20;;;29.70;;
26864;SDS011;40618;51.166;10.322;2024-01-11T07:36:52;60.60;;;29.40;;
26864;SDS011;40618;51.166;10.322;2024-01-11T07:39:18;58.83;;;29.95;;
26864;SDS011;40618;51.166;10.322;2024-01-11T07:41:44;55.15;;;26.50;;
26864;SDS011;40618;51.166;10.322;2024-01-11T07:44:10;60.95;;;30.25;;
26864;SDS011;40618;51.166;10.322;2024-01-11T07:46:35;64.25;;;30.25;;
26864;SDS011;40618;51.166;10.322;2024-01-11T07:49:02;60.78;;;31.02;;
26864;SDS011;40618;51.166;10.322;2024-01-11T07:51:28;63.72;;;30.98;;
26864;SDS011;40618;51.166;10.322;2024-01-11T07:53:53;59.67;;;30.50;;
26864;SDS011;40618;51.166;10.322;2024-01-11T07:56:19;55.47;;;29.60;;
26864;SDS011;40618;51.166;10.322;2024-01-11T07:58:45;58.67;;;29.40;;
26864;SDS011;40618;51.166;10.322;2024-01-11T08:01:11;56.97;;;29.23;;
26864;SDS011;40618;51.166;10.322;2024-01-11T08:03:37;60.50;;;30.20;;
26864;SDS011;40618;51.166;10.322;2024-01-11T08:06:03;62.78;;;30.70;;
26864;SDS011;40618;51.166;10.322;2024-01-11T08:08:32;63.45;;;30.60;;
26864;SDS011;40618;51.166;10.322;2024-01-11T08:10:58;62.83;;;29.90;;
26864;SDS011;40618;51.166;10.322;2024-01-11T08:13:24;63.25;;;30.90;;
26864;SDS011;40618;51.166;10.322;2024-01-11T08:15:50;55.90;;;28.08;;
26864;SDS011;40618;51.166;10.322;2024-01-11T08:18:17;55.80;;;28.45;;
26864;SDS011;40618;51.166;10.322;2024-01-11T08:20:44;55.50;;;27.00;;
26864;SDS011;40618;51.166;10.322;2024-01-11T08:23:09;49.95;;;27.23;;
26864;SDS011;40618;51.166;10.322;2024-01-11T08:25:35;57.60;;;27.42;;
26864;SDS011;40618;51.166;10.322;2024-01-11T08:28:00;54.20;;;27.65;;
26864;SDS011;40618;51.166;10.322;2024-01-11T08:30:27;56.20;;;28.23;;
26864;SDS011;40618;51.166;10.322;2024-01-11T08:32:53;50.15;;;25.38;;
26864;SDS011;40618;51.166;10.322;2024-01-11T08:35:20;57.33;;;29.38;;
26864;SDS011;40618;51.166;10.322;2024-01-11T08:37:46;55.35;;;29.27;;
26864;SDS011;40618;51.166;10.322;2024-01-11T08:40:12;42.88;;;22.67;;
26864;SDS011;40618;51.166;10.322;2024-01-11T08:42:38;44.13;;;25.58;;
26864;SDS011;40618;51.166;10.322;2024-01-11T08:45:06;53.65;;;28.80;;
26864;SDS011;40618;51.166;10.322;2024-01-11T08:47:35;71.38;;;35.03;;
26864;SDS011;40618;51.166;10.322;2024-01-11T08:50:03;92.57;;;41.17;;
26864;SDS011;40618;51.166;10.322;2024-01-11T08:52:31;60.15;;;31.40;;
26864;SDS011;40618;51.166;10.322;2024-01-11T08:54:58;47.67;;;25.15;;
26864;SDS011;40618;51.166;10.322;2024-01-11T08:57:24;56.28;;;27.42;;
26864;SDS011;40618;51.166;10.322;2024-01-11T08:59:49;54.97;;;27.13;;
26864;SDS011;40618;51.166;10.322;2024-01-11T09:02:15;47.92;;;22.17;;
26864;SDS011;40618;51.166;10.322;2024-01-11T09:04:40;38.78;;;20.02;;
26864;SDS011;40618;51.166;10.322;2024-01-11T09:07:06;40.60;;;20.30;;
26864;SDS011;40618;51.166;10.322;2024-01-11T09:09:31;39.40;;;19.30;;
26864;SDS011;40618;51.166;10.322;2024-01-11T09:11:57;40.92;;;19.17;;
26864;SDS011;40618;51.166;10.322;2024-01-11T09:14:23;38.42;;;18.92;;
26864;SDS011;40618;51.166;10.322;2024-01-11T09:16:48;35.80;;;18.05;;
26864;SDS011;40618;51.166;10.322;2024-01-11T09:19:15;40.72;;;19.60;;
26864;SDS011;40618;51.166;10.322;2024-01-11T09:21:41;39.80;;;18.98;;
26864;SDS011;40618;51.166;10.322;2024-01-11T09:24:07;36.50;;;18.42;;
26864;SDS011;40618;51.166;10.322;2024-01-11T09:26:33;35.75;;;17.63;;
26864;SDS011;40618;51.166;10.322;2024-01-11T09:28:58;35.03;;;16.58;;
26864;SDS011;40618;51.166;10.322;2024-01-11T09:31:24;36.55;;;16.98;;
26864;SDS011;40618;51.166;10.322;2024-01-11T09:33:49;30.75;;;15.10;;
26864;SDS011;40618;51.166;10.322;2024-01-11T09:36:15;29.35;;;14.57;;
26864;SDS011;40618;51.166;10.322;2024-01-11T09:38:41;28.08;;;14.35;;
26864;SDS011;40618;51.166;10.322;2024-01-11T09:41:07;28.17;;;15.05;;
26864;SDS011;40618;51.166;10.322;2024-01-11T09:43:36;36.47;;;17.75;;
26864;SDS011;40618;51.166;10.322;2024-01-11T09:46:03;113.15;;;46.88;;
26864;SDS011;40618;51.166;10.322;2024-01-11T09:48:34;126.28;;;52.10;;
26864;SDS011;40618;51.166;10.322;2024-01-11T09:51:03;122.50;;;48.67;;
26864;SDS011;40618;51.166;10.322;2024-01-11T09:53:35;91.13;;;41.72;;
26864;SDS011;40618;51.166;10.322;2024-01-11T09:56:05;87.68;;;40.67;;
26864;SDS011;40618;51.166;10.322;2024-01-11T09:58:34;81.85;;;37.25;;
26864;SDS011;40618;51.166;10.322;2024-01-11T10:01:03;90.75;;;40.97;;
26864;SDS011;40618;51.166;10.322;2024-01-11T10:03:35;68.47;;;33.90;;
26864;SDS011;40618;51.166;10.322;2024-01-11T10:06:02;66.22;;;30.38;;
26864;SDS011;40618;51.166;10.322;2024-01-11T10:08:29;69.45;;;28.13;;
26864;SDS011;40618;51.166;10.322;2024-01-11T10:10:55;63.42;;;30.58;;
26864;SDS011;40618;51.166;10.322;2024-01-11T10:13:28;75.50;;;33.55;;
26864;SDS011;40618;51.166;10.322;2024-01-11T10:16:10;80.00;;;34.63;;
26864;SDS011;40618;51.166;10.322;2024-01-11T10:18:43;81.43;;;34.63;;
26864;SDS011;40618;51.166;10.322;2024-01-11T10:21:09;62.30;;;28.85;;
26864;SDS011;40618;51.166;10.322;2024-01-11T10:23:38;62.70;;;25.83;;
26864;SDS011;40618;51.166;10.322;2024-01-11T10:26:04;50.13;;;22.33;;
26864;SDS011;40618;51.166;10.322;2024-01-11T10:28:30;53.08;;;24.65;;
26864;SDS011;40618;51.166;10.322;2024-01-11T10:30:56;51.28;;;24.48;;
26864;SDS011;40618;51.166;10.322;2024-01-11T10:33:22;52.33;;;25.92;;
26864;SDS011;40618;51.166;10.322;2024-01-11T10:35:48;50.33;;;23.73;;
26864;SDS011;40618;51.166;10.322;2024-01-11T10:38:15;45.70;;;21.98;;
26864;SDS011;40618;51.166;10.322;2024-01-11T10:40:41;46.25;;;21.80;;
26864;SDS011;40618;51.166;10.322;2024-01-11T10:43:11;41.75;;;20.13;;
26864;SDS011;40618;51.166;10.322;2024-01-11T10:45:40;47.95;;;21.77;;
26864;SDS011;40618;51.166;10.322;2024-01-11T10:48:07;49.17;;;24.73;;
26864;SDS011;40618;51.166;10.322;2024-01-11T10:50:43;54.17;;;25.92;;
26864;SDS011;40618;51.166;10.322;2024-01-11T10:55:45;42.22;;;21.48;;
26864;SDS011;40618;51.166;10.322;2024-01-11T10:58:13;47.25;;;23.63;;
26864;SDS011;40618;51.166;10.322;2024-01-11T11:00:40;43.10;;;23.05;;
26864;SDS011;40618;51.166;10.322;2024-01-11T11:03:06;41.72;;;21.90;;
26864;SDS011;40618;51.166;10.322;2024-01-11T11:05:34;43.85;;;23.98;;
26864;SDS011;40618;51.166;10.322;2024-01-11T11:08:00;50.00;;;23.05;;
26864;SDS011;40618;51.166;10.322;2024-01-11T11:10:28;46.60;;;21.98;;
26864;SDS011;40618;51.166;10.322;2024-01-11T11:12:57;46.03;;;21.77;;
26864;SDS011;40618;51.166;10.322;2024-01-11T11:15:24;44.58;;;22.17;;
26864;SDS011;40618;51.166;10.322;2024-01-11T11:17:53;41.47;;;20.52;;
26864;SDS011;40618;51.166;10.322;2024-01-11T11:20:18;39.40;;;19.98;;
26864;SDS011;40618;51.166;10.322;2024-01-11T11:22:48;43.45;;;21.45;;
26864;SDS011;40618;51.166;10.322;2024-01-11T11:25:30;39.47;;;20.38;;
26864;SDS011;40618;51.166;10.322;2024-01-11T11:27:56;58.58;;;29.20;;
26864;SDS011;40618;51.166;10.322;2024-01-11T11:30:22;50.65;;;24.73;;
26864;SDS011;40618;51.166;10.322;2024-01-11T11:32:48;44.05;;;21.60;;
26864;SDS011;40618;51.166;10.322;2024-01-11T11:35:13;43.13;;;21.77;;
26864;SDS011;40618;51.166;10.322;2024-01-11T11:37:39;45.33;;;21.00;;
26864;SDS011;40618;51.166;10.322;2024-01-11T11:40:05;41.22;;;20.50;;
26864;SDS011;40618;51.166;10.322;2024-01-11T11:42:34;44.17;;;21.42;;
26864;SDS011;40618;51.166;10.322;2024-01-11T11:45:00;41.47;;;21.92;;
26864;SDS011;40618;51.166;10.322;2024-01-11T11:47:32;38.83;;;19.55;;
26864;SDS011;40618;51.166;10.322;2024-01-11T11:50:04;43.22;;;21.45;;
26864;SDS011;40618;51.166;10.322;2024-01-11T11:52:37;39.17;;;20.20;;
26864;SDS011;40618;51.166;10.322;2024-01-11T11:57:35;41.67;;;18.92;;
26864;SDS011;40618;51.166;10.322;2024-01-11T12:00:02;37.17;;;19.45;;
26864;SDS011;40618;51.166;10.322;2024-01-11T12:02:32;40.53;;;20.63;;
26864;SDS011;40618;51.166;10.322;2024-01-11T12:05:01;41.95;;;20.42;;
26864;SDS011;40618;51.166;10.322;2024-01-11T12:07:27;46.30;;;22.98;;
26864;SDS011;40618;51.166;10.322;2024-01-11T12:09:53;46.47;;;23.17;;
26864;SDS011;40618;51.166;10.322;2024-01-11T12:12:19;46.88;;;21.65;;
26864;SDS011;40618;51.166;10.322;2024-01-11T12:14:46;42.92;;;20.88;;
26864;SDS011;40618;51.166;10.322;2024-01-11T12:17:13;48.00;;;22.88;;
26864;SDS011;40618;51.166;10.322;2024-01-11T12:19:39;48.05;;;22.42;;
26864;SDS011;40618;51.166;10.322;2024-01-11T12:22:05;48.17;;;22.48;;
26864;SDS011;40618;51.166;10.322;2024-01-11T12:24:30;43.25;;;21.67;;
26864;SDS011;40618;51.166;10.322;2024-01-11T12:26:58;39.20;;;20.25;;
26864;SDS011;40618;51.166;10.322;2024-01-11T12:29:25;45.83;;;21.20;;
26864;SDS011;40618;51.166;10.322;2024-01-11T12:31:55;42.25;;;21.65;;
26864;SDS011;40618;51.166;10.322;2024-01-11T12:34:25;43.38;;;20.73;;
26864;SDS011;40618;51.166;10.322;2024-01-11T12:36:53;41.72;;;19.13;;
26864;SDS011;40618;51.166;10.322;2024-01-11T12:39:20;37.22;;;18.30;;
26864;SDS011;40618;51.166;10.322;2024-01-11T12:41:48;41.28;;;21.25;;
26864;SDS011;40618;51.166;10.322;2024-01-11T12:44:19;48.30;;;22.45;;
26864;SDS011;40618;51.166;10.322;2024-01-11T12:46:47;57.25;;;25.67;;
26864;SDS011;40618;51.166;10.322;2024-01-11T12:49:14;53.03;;;23.10;;
26864;SDS011;40618;51.166;10.322;2024-01-11T12:51:40;48.97;;;23.17;;
26864;SDS011;40618;51.166;10.322;2024-01-11T12:54:10;48.45;;;21.20;;
26864;SDS011;40618;51.166;10.322;2024-01-11T12:56:41;44.92;;;20.92;;
26864;SDS011;40618;51.166;10.322;2024-01-11T12:59:08;46.80;;;21.15;;
26864;SDS011;40618;51.166;10.322;2024-01-11T13:01:35;48.33;;;23.20;;
26864;SDS011;40618;51.166;10.322;2024-01-11T13:04:05;43.58;;;21.25;;
26864;SDS011;40618;51.166;10.322;2024-01-11T13:06:30;49.53;;;21.85;;
26864;SDS011;40618;51.166;10.322;2024-01-11T13:08:57;41.47;;;19.45;;
26864;SDS011;40618;51.166;10.322;2024-01-11T13:11:23;36.00;;;17.90;;
26864;SDS011;40618;51.166;10.322;2024-01-11T13:13:50;34.70;;;18.70;;
26864;SDS011;40618;51.166;10.322;2024-01-11T13:16:17;38.83;;;18.65;;
26864;SDS011;40618;51.166;10.322;2024-01-11T13:18:44;38.42;;;16.73;;
26864;SDS011;40618;51.166;10.322;2024-01-11T13:21:10;38.78;;;17.23;;
26864;SDS011;40618;51.166;10.322;2024-01-11T13:23:39;36.72;;;17.27;;
26864;SDS011;40618;51.166;10.322;2024-01-11T13:26:06;37.65;;;17.35;;
26864;SDS011;40618;51.166;10.322;2024-01-11T13:28:35;37.33;;;17.13;;
26864;SDS011;40618;51.166;10.322;2024-01-11T13:31:01;34.92;;;16.70;;
26864;SDS011;40618;51.166;10.322;2024-01-11T13:33:27;30.77;;;15.23;;
26864;SDS011;40618;51.166;10.322;2024-01-11T13:35:53;30.95;;;14.73;;
26864;SDS011;40618;51.166;10.322;2024-01-11T13:38:19;34.47;;;15.93;;
26864;SDS011;40618;51.166;10.322;2024-01-11T13:40:45;41.42;;;16.75;;
26864;SDS011;40618;51.166;10.322;2024-01-11T13:43:10;36.22;;;16.42;;
26864;SDS011;40618;51.166;10.322;2024-01-11T13:45:36;29.77;;;13.68;;
26864;SDS011;40618;51.166;10.322;2024-01-11T13:48:05;35.95;;;17.23;;
26864;SDS011;40618;51.166;10.322;2024-01-11T13:50:31;28.73;;;14.73;;
26864;SDS011;40618;51.166;10.322;2024-01-11T13:52:57;29.52;;;15.18;;
26864;SDS011;40618;51.166;10.322;2024-01-11T13:55:23;35.42;;;16.23;;
26864;SDS011;40618;51.166;10.322;2024-01-11T13:57:49;32.38;;;14.27;;
26864;SDS011;40618;51.166;10.322;2024-01-11T14:00:16;25.42;;;12.55;;
26864;SDS011;40618;51.166;10.322;2024-01-11T14:02:43;34.05;;;14.55;;
26864;SDS011;40618;51.166;10.322;2024-01-11T14:05:13;32.45;;;14.57;;
26864;SDS011;40618;51.166;10.322;2024-01-11T14:07:40;35.78;;;16.60;;
26864;SDS011;40618;51.166;10.322;2024-01-11T14:10:07;37.25;;;16.88;;
26864;SDS011;40618;51.166;10.322;2024-01-11T14:12:34;43.67;;;17.65;;